createdAt,value
2018-08-07T00:01:08.629Z,5.17
2018-08-07T00:03:37.048Z,5.27
2018-08-07T00:06:05.476Z,5.30
2018-08-07T00:08:33.935Z,4.50
2018-08-07T00:11:02.338Z,4.60
2018-08-07T00:13:30.880Z,4.10
2018-08-07T00:15:59.332Z,4.47
2018-08-07T00:18:27.726Z,4.00
2018-08-07T00:20:56.171Z,3.80
2018-08-07T00:23:24.515Z,4.00
2018-08-07T00:25:52.920Z,3.63
2018-08-07T00:28:21.372Z,3.53
2018-08-07T00:30:49.840Z,4.00
2018-08-07T00:33:18.267Z,3.70
2018-08-07T00:35:46.529Z,3.90
2018-08-07T00:38:14.962Z,4.13
2018-08-07T00:40:43.412Z,4.80
2018-08-07T00:43:11.834Z,4.53
2018-08-07T00:45:40.307Z,5.20
2018-08-07T00:48:08.823Z,4.57
2018-08-07T00:50:37.228Z,3.73
2018-08-07T00:53:05.868Z,3.77
2018-08-07T00:55:34.280Z,3.60
2018-08-07T00:58:02.748Z,3.80
2018-08-07T01:00:31.158Z,3.43
2018-08-07T01:02:59.549Z,3.80
2018-08-07T01:05:28.004Z,3.83
2018-08-07T01:07:56.555Z,3.20
2018-08-07T01:10:25.139Z,3.60
2018-08-07T01:12:53.540Z,3.60
2018-08-07T01:15:21.955Z,4.10
2018-08-07T01:17:50.404Z,3.97
2018-08-07T01:20:22.552Z,3.47
2018-08-07T01:22:51.083Z,3.50
2018-08-07T01:25:21.866Z,3.20
2018-08-07T01:27:50.571Z,3.70
2018-08-07T01:30:21.872Z,3.63
2018-08-07T01:32:50.582Z,3.93
2018-08-07T01:35:19.344Z,4.10
2018-08-07T01:37:47.724Z,3.83
2018-08-07T01:40:16.148Z,4.40
2018-08-07T01:42:44.540Z,3.70
2018-08-07T01:45:12.979Z,3.63
2018-08-07T01:47:41.532Z,3.90
2018-08-07T01:50:11.436Z,3.73
2018-08-07T01:52:39.919Z,4.00
2018-08-07T01:55:10.053Z,3.80
2018-08-07T01:57:38.626Z,3.80
2018-08-07T02:00:09.512Z,3.70
2018-08-07T02:02:38.031Z,4.13
2018-08-07T02:05:08.692Z,4.07
2018-08-07T02:07:37.106Z,3.80
2018-08-07T02:10:07.721Z,3.80
2018-08-07T02:12:36.201Z,4.10
2018-08-07T02:15:05.361Z,3.97
2018-08-07T02:17:33.946Z,3.40
2018-08-07T02:20:02.481Z,4.13
2018-08-07T02:22:30.916Z,4.53
2018-08-07T02:24:59.400Z,4.23
2018-08-07T02:27:27.804Z,3.70
2018-08-07T02:29:56.228Z,4.37
2018-08-07T02:32:24.632Z,4.33
2018-08-07T02:34:53.033Z,4.50
2018-08-07T02:37:27.794Z,4.83
2018-08-07T02:39:56.249Z,4.07
2018-08-07T02:42:24.667Z,4.60
2018-08-07T02:44:53.145Z,4.70
2018-08-07T02:47:21.619Z,4.60
2018-08-07T02:49:50.170Z,3.60
2018-08-07T02:52:18.612Z,4.40
2018-08-07T02:54:47.215Z,4.20
2018-08-07T02:57:15.669Z,4.40
2018-08-07T02:59:44.079Z,4.70
2018-08-07T03:02:12.632Z,4.40
2018-08-07T03:04:41.533Z,4.50
2018-08-07T03:07:09.973Z,4.50
2018-08-07T03:09:38.449Z,4.70
2018-08-07T03:12:06.853Z,5.50
2018-08-07T03:14:35.241Z,4.87
2018-08-07T03:17:03.684Z,4.87
2018-08-07T03:19:32.061Z,4.47
2018-08-07T03:22:00.486Z,5.97
2018-08-07T03:24:28.917Z,5.50
2018-08-07T03:26:57.484Z,5.03
2018-08-07T03:29:25.876Z,5.27
2018-08-07T03:31:54.332Z,5.40
2018-08-07T03:34:22.732Z,4.07
2018-08-07T03:36:51.156Z,4.93
2018-08-07T03:39:19.586Z,4.97
2018-08-07T03:41:48.004Z,4.70
2018-08-07T03:44:16.456Z,5.10
2018-08-07T03:46:44.868Z,4.60
2018-08-07T03:49:13.314Z,4.83
2018-08-07T03:51:41.698Z,5.27
2018-08-07T03:54:10.220Z,5.33
2018-08-07T03:56:38.624Z,4.90
2018-08-07T03:59:07.245Z,5.77
2018-08-07T04:01:35.814Z,5.23
2018-08-07T04:04:04.289Z,5.87
2018-08-07T04:06:32.680Z,5.30
2018-08-07T04:09:01.096Z,5.30
2018-08-07T04:11:29.551Z,5.80
2018-08-07T04:13:57.960Z,5.13
2018-08-07T04:16:26.364Z,5.60
2018-08-07T04:18:54.785Z,4.83
2018-08-07T04:21:23.188Z,5.40
2018-08-07T04:23:51.716Z,5.10
2018-08-07T04:26:20.160Z,4.80
2018-08-07T04:28:48.636Z,4.97
2018-08-07T04:31:17.028Z,4.60
2018-08-07T04:33:45.500Z,4.50
2018-08-07T04:36:13.900Z,5.10
2018-08-07T04:38:42.284Z,5.20
2018-08-07T04:41:10.810Z,5.80
2018-08-07T04:43:39.184Z,5.37
2018-08-07T04:46:07.608Z,5.70
2018-08-07T04:48:36.071Z,5.80
2018-08-07T04:51:04.570Z,5.17
2018-08-07T04:53:32.981Z,4.90
2018-08-07T04:56:01.389Z,5.70
2018-08-07T04:58:29.814Z,5.47
2018-08-07T05:00:58.812Z,5.20
2018-08-07T05:03:27.793Z,5.80
2018-08-07T05:05:56.322Z,5.80
2018-08-07T05:08:24.741Z,5.23
2018-08-07T05:10:53.216Z,6.17
2018-08-07T05:13:21.611Z,6.00
2018-08-07T05:15:50.620Z,5.30
2018-08-07T05:18:19.124Z,5.40
2018-08-07T05:20:47.532Z,6.20
2018-08-07T05:23:15.976Z,5.00
2018-08-07T05:25:44.471Z,6.63
2018-08-07T05:28:12.896Z,6.03
2018-08-07T05:30:41.368Z,6.10
2018-08-07T05:33:09.812Z,5.70
2018-08-07T05:35:38.302Z,6.40
2018-08-07T05:38:06.765Z,5.33
2018-08-07T05:40:35.255Z,6.13
2018-08-07T05:43:03.696Z,6.13
2018-08-07T05:45:32.081Z,6.20
2018-08-07T05:48:00.490Z,6.27
2018-08-07T05:50:29.084Z,5.80
2018-08-07T05:52:57.474Z,5.50
2018-08-07T05:55:25.939Z,5.00
2018-08-07T05:57:54.354Z,5.90
2018-08-07T06:00:22.755Z,5.50
2018-08-07T06:02:51.375Z,5.33
2018-08-07T06:05:20.054Z,5.70
2018-08-07T06:07:49.376Z,6.80
2018-08-07T06:10:17.986Z,5.60
2018-08-07T06:12:46.406Z,5.63
2018-08-07T06:15:16.237Z,5.77
2018-08-07T06:17:45.656Z,5.80
2018-08-07T06:20:14.154Z,5.67
2018-08-07T06:22:42.680Z,6.30
2018-08-07T06:25:11.283Z,5.60
2018-08-07T06:27:39.924Z,5.97
2018-08-07T06:30:17.047Z,6.20
2018-08-07T06:32:46.981Z,5.37
2018-08-07T06:35:15.675Z,5.97
2018-08-07T06:37:44.138Z,6.40
2018-08-07T06:40:13.228Z,6.80
2018-08-07T06:42:43.098Z,6.20
2018-08-07T06:45:13.129Z,6.70
2018-08-07T06:47:41.607Z,5.93
2018-08-07T06:50:13.562Z,5.63
2018-08-07T06:52:42.230Z,5.93
2018-08-07T06:55:11.162Z,5.50
2018-08-07T06:57:39.851Z,5.73
2018-08-07T07:00:11.332Z,5.50
2018-08-07T07:02:39.908Z,5.50
2018-08-07T07:05:08.419Z,6.13
2018-08-07T07:07:36.906Z,5.83
2018-08-07T07:10:06.445Z,5.63
2018-08-07T07:12:34.960Z,5.10
2018-08-07T07:15:03.553Z,5.60
2018-08-07T07:17:32.104Z,5.70
2018-08-07T07:20:00.600Z,5.77
2018-08-07T07:22:29.016Z,5.87
2018-08-07T07:24:57.604Z,5.30
2018-08-07T07:27:26.239Z,5.87
2018-08-07T07:29:54.705Z,5.50
2018-08-07T07:32:23.085Z,6.00
2018-08-07T07:34:51.961Z,5.10
2018-08-07T07:37:20.360Z,5.00
2018-08-07T07:39:48.786Z,5.03
2018-08-07T07:42:17.303Z,5.60
2018-08-07T07:44:45.731Z,5.60
2018-08-07T07:47:14.143Z,5.97
2018-08-07T07:49:42.611Z,5.50
2018-08-07T07:52:11.079Z,6.00
2018-08-07T07:54:39.475Z,5.80
2018-08-07T07:57:08.111Z,5.40
2018-08-07T07:59:36.514Z,5.50
2018-08-07T08:02:05.007Z,4.83
2018-08-07T08:04:33.400Z,5.50
2018-08-07T08:07:01.792Z,5.80
2018-08-07T08:09:30.215Z,5.70
2018-08-07T08:11:58.607Z,4.63
2018-08-07T08:14:27.149Z,5.50
2018-08-07T08:16:55.651Z,5.00
2018-08-07T08:19:24.093Z,5.00
2018-08-07T08:21:52.523Z,5.70
2018-08-07T08:24:20.950Z,5.90
2018-08-07T08:26:49.434Z,5.00
2018-08-07T08:29:17.904Z,5.93
2018-08-07T08:31:46.204Z,5.43
2018-08-07T08:34:14.680Z,6.00
2018-08-07T08:36:43.146Z,6.00
2018-08-07T08:39:12.601Z,5.63
2018-08-07T08:41:41.462Z,5.77
2018-08-07T08:44:09.899Z,5.50
2018-08-07T08:46:38.836Z,5.07
2018-08-07T08:49:07.334Z,5.60
2018-08-07T08:51:35.756Z,5.40
2018-08-07T08:54:04.368Z,5.70
2018-08-07T08:56:32.710Z,5.60
2018-08-07T08:59:01.116Z,5.30
2018-08-07T09:01:29.535Z,5.00
2018-08-07T09:03:58.097Z,5.70
2018-08-07T09:06:26.529Z,5.57
2018-08-07T09:08:54.940Z,5.40
2018-08-07T09:11:23.415Z,5.30
2018-08-07T09:13:51.832Z,5.30
2018-08-07T09:16:20.291Z,5.43
2018-08-07T09:18:48.725Z,5.17
2018-08-07T09:21:17.150Z,4.80
2018-08-07T09:23:45.570Z,4.83
2018-08-07T09:26:14.050Z,5.17
2018-08-07T09:28:42.557Z,4.70
2018-08-07T09:31:11.017Z,4.47
2018-08-07T09:33:39.460Z,4.87
2018-08-07T09:36:07.998Z,5.10
2018-08-07T09:38:36.398Z,5.00
2018-08-07T09:41:04.862Z,4.47
2018-08-07T09:43:33.277Z,5.00
2018-08-07T09:46:01.683Z,5.40
2018-08-07T09:48:30.099Z,4.60
2018-08-07T09:50:58.517Z,4.27
2018-08-07T09:53:27.010Z,4.57
2018-08-07T09:55:55.442Z,5.03
2018-08-07T09:58:23.889Z,4.90
2018-08-07T10:00:57.679Z,5.57
2018-08-07T10:03:26.197Z,5.63
2018-08-07T10:05:54.632Z,4.97
2018-08-07T10:08:23.056Z,4.83
2018-08-07T10:10:51.595Z,5.23
2018-08-07T10:13:20.052Z,4.67
2018-08-07T10:15:48.550Z,5.27
2018-08-07T10:18:17.110Z,5.77
2018-08-07T10:20:45.605Z,5.37
2018-08-07T10:23:14.215Z,4.40
2018-08-07T10:25:42.691Z,4.50
2018-08-07T10:28:11.141Z,4.27
2018-08-07T10:30:39.600Z,4.93
2018-08-07T10:33:07.978Z,4.43
2018-08-07T10:35:36.504Z,4.13
2018-08-07T10:38:05.062Z,4.80
2018-08-07T10:40:33.502Z,4.40
2018-08-07T10:43:01.900Z,4.80
2018-08-07T10:45:30.388Z,4.90
2018-08-07T10:47:58.872Z,4.30
2018-08-07T10:50:28.484Z,5.00
2018-08-07T10:52:57.671Z,5.10
2018-08-07T10:55:26.556Z,5.53
2018-08-07T10:57:57.460Z,5.77
2018-08-07T11:00:29.167Z,5.27
2018-08-07T11:02:57.995Z,5.37
2018-08-07T11:05:27.135Z,5.10
2018-08-07T11:07:55.567Z,5.37
2018-08-07T11:10:24.381Z,5.03
2018-08-07T11:12:53.395Z,4.80
2018-08-07T11:15:24.343Z,6.10
2018-08-07T11:17:53.632Z,5.03
2018-08-07T11:20:22.147Z,5.53
2018-08-07T11:22:51.730Z,5.57
2018-08-07T11:25:21.640Z,5.57
2018-08-07T11:27:50.105Z,5.27
2018-08-07T11:30:20.727Z,5.20
2018-08-07T11:32:49.386Z,4.80
2018-08-07T11:35:18.524Z,5.73
2018-08-07T11:37:49.106Z,5.20
2018-08-07T11:40:19.350Z,5.77
2018-08-07T11:42:48.572Z,5.50
2018-08-07T11:45:18.384Z,5.93
2018-08-07T11:47:47.101Z,5.33
2018-08-07T11:50:17.187Z,5.67
2018-08-07T11:52:45.719Z,5.57
2018-08-07T11:55:15.587Z,5.57
2018-08-07T11:57:44.623Z,4.73
2018-08-07T12:00:17.751Z,5.40
2018-08-07T12:02:46.435Z,5.10
2018-08-07T12:05:15.211Z,4.70
2018-08-07T12:07:43.644Z,4.60
2018-08-07T12:10:13.419Z,5.20
2018-08-07T12:12:42.727Z,4.77
2018-08-07T12:15:13.403Z,5.33
2018-08-07T12:17:41.915Z,4.47
2018-08-07T12:20:10.307Z,5.50
2018-08-07T12:22:38.996Z,5.27
2018-08-07T12:25:08.387Z,5.63
2018-08-07T12:27:36.884Z,5.20
2018-08-07T12:30:18.458Z,4.50
2018-08-07T12:32:47.031Z,4.30
2018-08-07T12:35:15.733Z,4.60
2018-08-07T12:37:44.174Z,4.83
2018-08-07T12:40:18.232Z,4.20
2018-08-07T12:42:47.309Z,4.67
2018-08-07T12:45:15.760Z,4.93
2018-08-07T12:47:44.792Z,5.03
2018-08-07T12:50:14.376Z,5.47
2018-08-07T12:52:42.945Z,4.60
2018-08-07T12:55:13.332Z,4.80
2018-08-07T12:57:41.918Z,5.60
2018-08-07T13:00:26.883Z,4.80
2018-08-07T13:02:55.837Z,4.87
2018-08-07T13:05:24.683Z,3.93
2018-08-07T13:07:53.931Z,4.30
2018-08-07T13:10:23.530Z,5.10
2018-08-07T13:12:52.847Z,5.10
2018-08-07T13:15:21.927Z,4.97
2018-08-07T13:17:50.624Z,5.20
2018-08-07T13:20:19.098Z,4.60
2018-08-07T13:22:48.191Z,4.30
2018-08-07T13:25:19.868Z,4.77
2018-08-07T13:27:48.445Z,5.10
2018-08-07T13:30:23.570Z,4.73
2018-08-07T13:32:52.033Z,4.73
2018-08-07T13:35:20.470Z,4.33
2018-08-07T13:37:49.934Z,4.40
2018-08-07T13:40:19.546Z,4.50
2018-08-07T13:42:48.080Z,4.43
2018-08-07T13:45:19.932Z,4.00
2018-08-07T13:47:48.405Z,4.57
2018-08-07T13:50:19.372Z,4.60
2018-08-07T13:52:48.192Z,5.00
2018-08-07T13:55:17.796Z,4.63
2018-08-07T13:57:46.986Z,5.10
2018-08-07T14:00:17.846Z,4.50
2018-08-07T14:02:47.100Z,4.40
2018-08-07T14:05:16.516Z,3.60
2018-08-07T14:07:46.022Z,3.80
2018-08-07T14:10:15.227Z,3.97
2018-08-07T14:12:43.712Z,4.10
2018-08-07T14:15:13.820Z,4.43
2018-08-07T14:17:43.326Z,4.37
2018-08-07T14:20:13.043Z,4.13
2018-08-07T14:22:41.551Z,3.97
2018-08-07T14:25:12.730Z,3.77
2018-08-07T14:27:41.200Z,3.50
2018-08-07T14:30:16.710Z,3.87
2018-08-07T14:32:45.152Z,3.47
2018-08-07T14:35:13.619Z,4.40
2018-08-07T14:37:44.294Z,4.10
2018-08-07T14:40:14.188Z,4.23
2018-08-07T14:42:43.991Z,3.90
2018-08-07T14:45:13.811Z,3.70
2018-08-07T14:47:42.926Z,3.60
2018-08-07T14:50:14.389Z,4.30
2018-08-07T14:52:42.846Z,3.93
2018-08-07T14:55:11.837Z,3.33
2018-08-07T14:57:41.120Z,4.23
2018-08-07T15:00:13.594Z,3.80
2018-08-07T15:02:42.126Z,3.90
2018-08-07T15:05:10.723Z,3.87
2018-08-07T15:07:39.650Z,3.70
2018-08-07T15:10:11.490Z,4.80
2018-08-07T15:12:40.525Z,4.33
2018-08-07T15:15:19.122Z,4.37
2018-08-07T15:17:47.602Z,4.20
2018-08-07T15:20:17.711Z,3.70
2018-08-07T15:22:47.584Z,3.90
2018-08-07T15:25:16.777Z,4.50
2018-08-07T15:27:46.112Z,3.83
2018-08-07T15:30:24.536Z,5.33
2018-08-07T15:32:53.434Z,3.93
2018-08-07T15:35:23.221Z,4.10
2018-08-07T15:37:52.489Z,3.53
2018-08-07T15:40:21.232Z,4.23
2018-08-07T15:42:49.724Z,3.77
2018-08-07T15:45:20.269Z,4.23
2018-08-07T15:47:48.843Z,4.33
2018-08-07T15:50:18.101Z,4.07
2018-08-07T15:52:50.024Z,3.90
2018-08-07T15:55:21.244Z,4.00
2018-08-07T15:57:49.822Z,3.70
2018-08-07T16:00:22.110Z,3.80
2018-08-07T16:02:50.699Z,4.50
2018-08-07T16:05:19.151Z,4.00
2018-08-07T16:07:48.419Z,3.60
2018-08-07T16:10:18.070Z,4.40
2018-08-07T16:12:47.465Z,4.17
2018-08-07T16:15:15.906Z,4.13
2018-08-07T16:17:45.625Z,4.43
2018-08-07T16:20:14.146Z,4.67
2018-08-07T16:22:42.960Z,4.00
2018-08-07T16:25:12.953Z,4.33
2018-08-07T16:27:42.610Z,4.20
2018-08-07T16:30:20.462Z,3.90
2018-08-07T16:32:48.766Z,3.63
2018-08-07T16:35:17.528Z,4.00
2018-08-07T16:37:46.154Z,3.80
2018-08-07T16:40:17.471Z,3.40
2018-08-07T16:42:46.342Z,4.40
2018-08-07T16:45:16.841Z,5.07
2018-08-07T16:47:45.415Z,4.43
2018-08-07T16:50:23.436Z,5.73
2018-08-07T16:52:52.933Z,4.67
2018-08-07T16:55:22.526Z,3.80
2018-08-07T16:57:51.299Z,4.80
2018-08-07T17:00:19.843Z,4.97
2018-08-07T17:02:47.936Z,5.37
2018-08-07T17:05:17.191Z,4.60
2018-08-07T17:07:46.299Z,5.30
2018-08-07T17:10:20.155Z,6.23
2018-08-07T17:12:48.877Z,4.73
2018-08-07T17:15:17.304Z,6.17
2018-08-07T17:17:46.063Z,5.10
2018-08-07T17:20:18.200Z,5.20
2018-08-07T17:22:46.976Z,5.30
2018-08-07T17:25:16.884Z,5.50
2018-08-07T17:27:46.344Z,6.30
2018-08-07T17:30:17.085Z,5.30
2018-08-07T17:32:46.047Z,5.70
2018-08-07T17:35:17.623Z,6.73
2018-08-07T17:37:46.531Z,6.20
2018-08-07T17:40:16.353Z,5.97
2018-08-07T17:42:44.904Z,6.40
2018-08-07T17:45:13.905Z,6.10
2018-08-07T17:47:42.314Z,5.97
2018-08-07T17:50:16.537Z,6.97
2018-08-07T17:52:45.082Z,6.27
2018-08-07T17:55:13.604Z,6.17
2018-08-07T17:57:42.102Z,6.17
2018-08-07T18:00:19.674Z,7.17
2018-08-07T18:02:48.190Z,5.43
2018-08-07T18:05:16.620Z,6.57
2018-08-07T18:07:47.073Z,5.90
2018-08-07T18:10:17.111Z,6.07
2018-08-07T18:12:52.264Z,5.90
2018-08-07T18:15:22.039Z,6.40
2018-08-07T18:17:50.919Z,5.60
2018-08-07T18:20:21.566Z,6.20
2018-08-07T18:22:50.010Z,6.13
2018-08-07T18:25:18.527Z,6.70
2018-08-07T18:27:46.967Z,6.33
2018-08-07T18:30:17.263Z,7.07
2018-08-07T18:32:46.675Z,5.20
2018-08-07T18:35:24.120Z,5.53
2018-08-07T18:37:52.747Z,7.10
2018-08-07T18:40:21.215Z,6.63
2018-08-07T18:42:49.863Z,5.80
2018-08-07T18:45:18.346Z,6.17
2018-08-07T18:47:47.873Z,7.50
2018-08-07T18:50:19.847Z,5.37
2018-08-07T18:52:48.023Z,6.00
2018-08-07T18:55:16.866Z,6.23
2018-08-07T18:57:46.590Z,5.60
2018-08-07T19:00:18.751Z,6.23
2018-08-07T19:02:47.363Z,5.80
2018-08-07T19:05:17.265Z,5.83
2018-08-07T19:07:45.863Z,5.60
2018-08-07T19:10:14.607Z,6.23
2018-08-07T19:12:44.115Z,6.23
2018-08-07T19:15:13.601Z,6.33
2018-08-07T19:17:42.713Z,6.47
2018-08-07T19:20:13.355Z,6.70
2018-08-07T19:22:41.891Z,5.73
2018-08-07T19:25:11.375Z,6.37
2018-08-07T19:27:39.772Z,6.00
2018-08-07T19:30:10.211Z,6.60
2018-08-07T19:32:39.283Z,6.90
2018-08-07T19:35:09.615Z,6.13
2018-08-07T19:37:38.084Z,6.70
2018-08-07T19:40:08.376Z,5.90
2018-08-07T19:42:37.219Z,6.63
2018-08-07T19:45:07.746Z,6.07
2018-08-07T19:47:36.181Z,5.87
2018-08-07T19:50:05.918Z,6.93
2018-08-07T19:52:34.470Z,6.10
2018-08-07T19:55:03.444Z,6.90
2018-08-07T19:57:32.910Z,7.67
2018-08-07T20:00:01.485Z,6.10
2018-08-07T20:02:29.885Z,7.37
2018-08-07T20:04:58.561Z,6.37
2018-08-07T20:07:27.341Z,6.80
2018-08-07T20:09:55.825Z,6.67
2018-08-07T20:12:24.419Z,5.80
2018-08-07T20:14:52.932Z,6.20
2018-08-07T20:17:21.509Z,6.47
2018-08-07T20:19:49.913Z,7.10
2018-08-07T20:22:18.582Z,6.40
2018-08-07T20:24:47.004Z,6.40
2018-08-07T20:27:15.395Z,6.97
2018-08-07T20:29:44.732Z,6.60
2018-08-07T20:32:13.303Z,6.17
2018-08-07T20:34:41.783Z,6.20
2018-08-07T20:37:10.455Z,7.30
2018-08-07T20:39:38.843Z,6.80
2018-08-07T20:42:07.345Z,6.43
2018-08-07T20:44:35.919Z,6.50
2018-08-07T20:47:04.368Z,6.30
2018-08-07T20:49:32.766Z,6.90
2018-08-07T20:52:01.233Z,6.73
2018-08-07T20:54:30.672Z,7.33
2018-08-07T20:56:59.159Z,6.87
2018-08-07T20:59:27.607Z,6.30
2018-08-07T21:01:56.131Z,6.70
2018-08-07T21:04:24.687Z,6.87
2018-08-07T21:06:53.149Z,5.97
2018-08-07T21:09:21.654Z,6.60
2018-08-07T21:11:50.251Z,5.50
2018-08-07T21:14:18.705Z,6.40
2018-08-07T21:16:47.136Z,6.27
2018-08-07T21:19:15.602Z,6.50
2018-08-07T21:21:44.055Z,6.40
2018-08-07T21:24:12.587Z,6.37
2018-08-07T21:26:40.976Z,5.93
2018-08-07T21:29:09.381Z,5.90
2018-08-07T21:31:37.892Z,5.90
2018-08-07T21:34:06.147Z,5.93
2018-08-07T21:36:34.586Z,5.93
2018-08-07T21:39:03.282Z,6.50
2018-08-07T21:41:31.695Z,6.23
2018-08-07T21:44:00.169Z,6.40
2018-08-07T21:46:28.692Z,7.10
2018-08-07T21:48:57.124Z,6.97
2018-08-07T21:51:25.563Z,6.20
2018-08-07T21:53:54.086Z,7.70
2018-08-07T21:56:22.357Z,7.10
2018-08-07T21:58:50.811Z,8.80
2018-08-07T22:01:19.310Z,8.40
2018-08-07T22:03:48.009Z,7.83
2018-08-07T22:06:16.363Z,7.70
2018-08-07T22:08:44.899Z,9.20
2018-08-07T22:11:13.403Z,9.43
2018-08-07T22:13:41.771Z,8.20
2018-08-07T22:16:10.211Z,7.87
2018-08-07T22:18:38.710Z,8.73
2018-08-07T22:21:07.527Z,8.40
2018-08-07T22:23:36.032Z,8.10
2018-08-07T22:26:04.744Z,8.07
2018-08-07T22:28:33.158Z,7.60
2018-08-07T22:31:01.632Z,8.73
2018-08-07T22:33:30.080Z,8.20
2018-08-07T22:35:58.512Z,9.27
2018-08-07T22:38:27.814Z,8.40
2018-08-07T22:40:56.238Z,8.87
2018-08-07T22:43:24.670Z,9.50
2018-08-07T22:45:53.118Z,9.10
2018-08-07T22:48:21.552Z,9.27
2018-08-07T22:50:49.972Z,10.20
2018-08-07T22:53:18.400Z,9.40
2018-08-07T22:55:46.984Z,9.80
2018-08-07T22:58:15.412Z,9.97
2018-08-07T23:00:43.846Z,10.27
2018-08-07T23:03:12.334Z,10.67
2018-08-07T23:05:40.764Z,11.10
2018-08-07T23:08:09.240Z,9.20
2018-08-07T23:10:37.716Z,11.13
2018-08-07T23:13:06.546Z,11.37
2018-08-07T23:15:34.976Z,10.40
2018-08-07T23:18:03.420Z,10.00
2018-08-07T23:20:31.884Z,10.50
2018-08-07T23:23:00.314Z,10.30
2018-08-07T23:25:28.834Z,10.53
2018-08-07T23:27:57.280Z,11.37
2018-08-07T23:30:25.794Z,10.87
2018-08-07T23:32:54.298Z,9.80
2018-08-07T23:35:22.732Z,10.50
2018-08-07T23:37:51.156Z,10.50
2018-08-07T23:40:19.564Z,10.70
2018-08-07T23:42:47.971Z,10.10
2018-08-07T23:45:16.521Z,9.87
2018-08-07T23:47:44.896Z,10.40
2018-08-07T23:50:14.005Z,10.40
2018-08-07T23:52:42.556Z,9.70
2018-08-07T23:55:11.122Z,10.00
2018-08-07T23:57:39.704Z,9.60
